sensor_id;sensor_type;location;lat;lon;timestamp;P1;durP1;ratioP1;P2;durP2;ratioP2
72882;SDS011;61017;37.812;-122.286;2022-11-06T00:00:46;2.05;;;1.00;;
72882;SDS011;61017;37.812;-122.286;2022-11-06T00:02:38;1.80;;;1.10;;
72882;SDS011;61017;37.812;-122.286;2022-11-06T00:04:32;2.58;;;0.98;;
72882;SDS011;61017;37.812;-122.286;2022-11-06T00:06:24;2.10;;;1.08;;
72882;SDS011;61017;37.812;-122.286;2022-11-06T00:08:15;4.38;;;0.90;;
72882;SDS011;61017;37.812;-122.286;2022-11-06T00:10:14;3.65;;;1.13;;
72882;SDS011;61017;37.812;-122.286;2022-11-06T00:12:08;1.67;;;0.90;;
72882;SDS011;61017;37.812;-122.286;2022-11-06T00:13:58;1.45;;;0.98;;
72882;SDS011;61017;37.812;-122.286;2022-11-06T00:15:50;1.45;;;0.90;;
72882;SDS011;61017;37.812;-122.286;2022-11-06T00:17:40;1.60;;;0.80;;
72882;SDS011;61017;37.812;-122.286;2022-11-06T00:19:30;1.83;;;0.90;;
72882;SDS011;61017;37.812;-122.286;2022-11-06T00:21:23;1.67;;;1.02;;
72882;SDS011;61017;37.812;-122.286;2022-11-06T00:23:18;1.30;;;0.80;;
72882;SDS011;61017;37.812;-122.286;2022-11-06T00:25:08;1.30;;;0.98;;
72882;SDS011;61017;37.812;-122.286;2022-11-06T00:26:58;1.25;;;0.82;;
72882;SDS011;61017;37.812;-122.286;2022-11-06T00:28:51;2.30;;;0.95;;
72882;SDS011;61017;37.812;-122.286;2022-11-06T00:30:45;2.10;;;0.80;;
72882;SDS011;61017;37.812;-122.286;2022-11-06T00:34:29;1.25;;;0.80;;
72882;SDS011;61017;37.812;-122.286;2022-11-06T00:36:20;1.33;;;0.90;;
72882;SDS011;61017;37.812;-122.286;2022-11-06T00:38:12;1.13;;;0.70;;
72882;SDS011;61017;37.812;-122.286;2022-11-06T00:40:03;2.10;;;0.80;;
72882;SDS011;61017;37.812;-122.286;2022-11-06T00:41:56;1.60;;;0.95;;
72882;SDS011;61017;37.812;-122.286;2022-11-06T00:43:49;2.78;;;0.90;;
72882;SDS011;61017;37.812;-122.286;2022-11-06T00:45:45;1.25;;;0.80;;
72882;SDS011;61017;37.812;-122.286;2022-11-06T00:47:37;1.75;;;0.95;;
72882;SDS011;61017;37.812;-122.286;2022-11-06T00:49:27;1.42;;;0.85;;
72882;SDS011;61017;37.812;-122.286;2022-11-06T00:51:19;1.52;;;0.85;;
72882;SDS011;61017;37.812;-122.286;2022-11-06T00:53:10;1.40;;;0.80;;
72882;SDS011;61017;37.812;-122.286;2022-11-06T00:55:00;3.28;;;0.88;;
72882;SDS011;61017;37.812;-122.286;2022-11-06T00:56:50;1.45;;;0.95;;
72882;SDS011;61017;37.812;-122.286;2022-11-06T00:58:40;4.50;;;0.90;;
72882;SDS011;61017;37.812;-122.286;2022-11-06T01:00:31;1.80;;;0.85;;
72882;SDS011;61017;37.812;-122.286;2022-11-06T01:02:21;3.00;;;0.80;;
72882;SDS011;61017;37.812;-122.286;2022-11-06T01:04:15;2.30;;;0.80;;
72882;SDS011;61017;37.812;-122.286;2022-11-06T01:06:08;1.50;;;0.80;;
72882;SDS011;61017;37.812;-122.286;2022-11-06T01:08:01;2.80;;;0.90;;
72882;SDS011;61017;37.812;-122.286;2022-11-06T01:09:51;1.40;;;0.82;;
72882;SDS011;61017;37.812;-122.286;2022-11-06T01:11:44;1.70;;;0.90;;
72882;SDS011;61017;37.812;-122.286;2022-11-06T01:13:36;1.42;;;0.90;;
72882;SDS011;61017;37.812;-122.286;2022-11-06T01:15:26;1.65;;;0.80;;
72882;SDS011;61017;37.812;-122.286;2022-11-06T01:17:16;1.48;;;0.90;;
72882;SDS011;61017;37.812;-122.286;2022-11-06T01:19:07;2.28;;;0.85;;
72882;SDS011;61017;37.812;-122.286;2022-11-06T01:21:01;0.90;;;0.63;;
72882;SDS011;61017;37.812;-122.286;2022-11-06T01:22:55;2.22;;;0.70;;
72882;SDS011;61017;37.812;-122.286;2022-11-06T01:24:45;1.33;;;0.90;;
72882;SDS011;61017;37.812;-122.286;2022-11-06T01:26:36;4.20;;;0.80;;
72882;SDS011;61017;37.812;-122.286;2022-11-06T01:28:27;2.85;;;0.90;;
72882;SDS011;61017;37.812;-122.286;2022-11-06T01:30:17;3.03;;;1.05;;
72882;SDS011;61017;37.812;-122.286;2022-11-06T01:32:07;2.45;;;1.00;;
72882;SDS011;61017;37.812;-122.286;2022-11-06T01:33:58;1.27;;;0.80;;
72882;SDS011;61017;37.812;-122.286;2022-11-06T01:35:50;1.63;;;1.00;;
72882;SDS011;61017;37.812;-122.286;2022-11-06T01:37:41;1.52;;;0.95;;
72882;SDS011;61017;37.812;-122.286;2022-11-06T01:39:34;1.95;;;0.80;;
72882;SDS011;61017;37.812;-122.286;2022-11-06T01:41:28;1.83;;;0.73;;
72882;SDS011;61017;37.812;-122.286;2022-11-06T01:45:36;1.42;;;0.80;;
72882;SDS011;61017;37.812;-122.286;2022-11-06T01:47:28;1.55;;;0.80;;
72882;SDS011;61017;37.812;-122.286;2022-11-06T01:49:26;1.35;;;0.85;;
72882;SDS011;61017;37.812;-122.286;2022-11-06T01:51:21;3.10;;;1.10;;
72882;SDS011;61017;37.812;-122.286;2022-11-06T01:53:13;6.60;;;1.08;;
72882;SDS011;61017;37.812;-122.286;2022-11-06T01:55:09;2.15;;;0.93;;
72882;SDS011;61017;37.812;-122.286;2022-11-06T01:57:10;6.75;;;0.98;;
72882;SDS011;61017;37.812;-122.286;2022-11-06T01:59:00;24.92;;;1.80;;
72882;SDS011;61017;37.812;-122.286;2022-11-06T02:00:53;13.68;;;1.63;;
72882;SDS011;61017;37.812;-122.286;2022-11-06T02:02:46;9.15;;;1.10;;
72882;SDS011;61017;37.812;-122.286;2022-11-06T02:04:40;6.10;;;1.20;;
72882;SDS011;61017;37.812;-122.286;2022-11-06T02:06:34;11.73;;;1.30;;
72882;SDS011;61017;37.812;-122.286;2022-11-06T02:08:25;10.15;;;1.27;;
72882;SDS011;61017;37.812;-122.286;2022-11-06T02:10:16;7.72;;;1.40;;
72882;SDS011;61017;37.812;-122.286;2022-11-06T02:14:32;5.35;;;1.20;;
72882;SDS011;61017;37.812;-122.286;2022-11-06T02:27:09;6.00;;;1.08;;
72882;SDS011;61017;37.812;-122.286;2022-11-06T02:29:08;6.38;;;1.20;;
72882;SDS011;61017;37.812;-122.286;2022-11-06T02:31:04;6.10;;;1.10;;
72882;SDS011;61017;37.812;-122.286;2022-11-06T02:33:00;3.38;;;1.08;;
72882;SDS011;61017;37.812;-122.286;2022-11-06T02:34:54;3.35;;;1.08;;
72882;SDS011;61017;37.812;-122.286;2022-11-06T02:36:53;4.05;;;1.25;;
72882;SDS011;61017;37.812;-122.286;2022-11-06T02:38:54;4.95;;;0.93;;
72882;SDS011;61017;37.812;-122.286;2022-11-06T02:40:57;6.63;;;1.00;;
72882;SDS011;61017;37.812;-122.286;2022-11-06T02:42:52;4.60;;;1.35;;
72882;SDS011;61017;37.812;-122.286;2022-11-06T02:44:46;11.32;;;1.50;;
72882;SDS011;61017;37.812;-122.286;2022-11-06T02:46:48;7.07;;;1.20;;
72882;SDS011;61017;37.812;-122.286;2022-11-06T02:48:43;6.97;;;1.15;;
72882;SDS011;61017;37.812;-122.286;2022-11-06T02:50:41;3.75;;;1.10;;
72882;SDS011;61017;37.812;-122.286;2022-11-06T02:52:40;5.50;;;1.30;;
72882;SDS011;61017;37.812;-122.286;2022-11-06T02:54:40;10.02;;;1.15;;
72882;SDS011;61017;37.812;-122.286;2022-11-06T02:56:39;4.97;;;1.02;;
72882;SDS011;61017;37.812;-122.286;2022-11-06T02:58:40;2.25;;;1.10;;
72882;SDS011;61017;37.812;-122.286;2022-11-06T03:00:59;2.85;;;1.00;;
72882;SDS011;61017;37.812;-122.286;2022-11-06T03:03:24;4.10;;;1.20;;
72882;SDS011;61017;37.812;-122.286;2022-11-06T03:05:22;5.18;;;1.40;;
72882;SDS011;61017;37.812;-122.286;2022-11-06T03:07:24;26.42;;;1.85;;
72882;SDS011;61017;37.812;-122.286;2022-11-06T03:09:23;11.68;;;1.40;;
72882;SDS011;61017;37.812;-122.286;2022-11-06T03:11:27;5.30;;;1.38;;
72882;SDS011;61017;37.812;-122.286;2022-11-06T03:16:02;4.97;;;1.40;;
72882;SDS011;61017;37.812;-122.286;2022-11-06T03:18:14;7.82;;;1.60;;
72882;SDS011;61017;37.812;-122.286;2022-11-06T03:20:17;9.55;;;1.50;;
72882;SDS011;61017;37.812;-122.286;2022-11-06T03:26:47;10.13;;;1.33;;
72882;SDS011;61017;37.812;-122.286;2022-11-06T03:30:43;5.25;;;1.20;;
72882;SDS011;61017;37.812;-122.286;2022-11-06T03:32:44;3.35;;;1.20;;
72882;SDS011;61017;37.812;-122.286;2022-11-06T03:34:53;2.58;;;1.30;;
72882;SDS011;61017;37.812;-122.286;2022-11-06T03:36:51;4.53;;;1.45;;
72882;SDS011;61017;37.812;-122.286;2022-11-06T03:38:53;8.20;;;1.45;;
72882;SDS011;61017;37.812;-122.286;2022-11-06T03:40:52;3.17;;;1.50;;
72882;SDS011;61017;37.812;-122.286;2022-11-06T03:42:56;2.20;;;1.35;;
72882;SDS011;61017;37.812;-122.286;2022-11-06T03:44:59;3.58;;;1.40;;
72882;SDS011;61017;37.812;-122.286;2022-11-06T03:47:12;3.80;;;1.20;;
72882;SDS011;61017;37.812;-122.286;2022-11-06T03:49:17;2.15;;;1.42;;
72882;SDS011;61017;37.812;-122.286;2022-11-06T03:51:20;3.30;;;1.20;;
72882;SDS011;61017;37.812;-122.286;2022-11-06T03:55:38;2.80;;;1.40;;
72882;SDS011;61017;37.812;-122.286;2022-11-06T03:59:45;2.72;;;1.45;;
72882;SDS011;61017;37.812;-122.286;2022-11-06T04:01:40;4.53;;;1.60;;
72882;SDS011;61017;37.812;-122.286;2022-11-06T04:03:36;4.57;;;1.58;;
72882;SDS011;61017;37.812;-122.286;2022-11-06T04:05:30;3.03;;;1.52;;
72882;SDS011;61017;37.812;-122.286;2022-11-06T04:07:29;3.65;;;1.40;;
72882;SDS011;61017;37.812;-122.286;2022-11-06T04:09:32;3.22;;;1.50;;
72882;SDS011;61017;37.812;-122.286;2022-11-06T04:11:25;3.72;;;1.50;;
72882;SDS011;61017;37.812;-122.286;2022-11-06T04:13:19;2.95;;;1.50;;
72882;SDS011;61017;37.812;-122.286;2022-11-06T04:15:12;3.05;;;1.60;;
72882;SDS011;61017;37.812;-122.286;2022-11-06T04:17:09;1.88;;;1.40;;
72882;SDS011;61017;37.812;-122.286;2022-11-06T04:19:04;2.00;;;1.33;;
72882;SDS011;61017;37.812;-122.286;2022-11-06T04:23:19;3.22;;;1.60;;
72882;SDS011;61017;37.812;-122.286;2022-11-06T04:29:19;2.35;;;1.58;;
72882;SDS011;61017;37.812;-122.286;2022-11-06T04:34:03;3.85;;;1.60;;
72882;SDS011;61017;37.812;-122.286;2022-11-06T04:36:01;2.78;;;1.55;;
72882;SDS011;61017;37.812;-122.286;2022-11-06T04:38:04;1.98;;;1.33;;
72882;SDS011;61017;37.812;-122.286;2022-11-06T04:42:45;5.20;;;1.60;;
72882;SDS011;61017;37.812;-122.286;2022-11-06T04:44:57;5.45;;;1.60;;
72882;SDS011;61017;37.812;-122.286;2022-11-06T04:47:09;3.60;;;1.40;;
72882;SDS011;61017;37.812;-122.286;2022-11-06T04:49:05;2.97;;;1.30;;
72882;SDS011;61017;37.812;-122.286;2022-11-06T04:51:12;3.67;;;1.50;;
72882;SDS011;61017;37.812;-122.286;2022-11-06T04:53:03;3.15;;;1.40;;
72882;SDS011;61017;37.812;-122.286;2022-11-06T04:54:59;5.50;;;1.60;;
72882;SDS011;61017;37.812;-122.286;2022-11-06T04:56:58;2.60;;;1.40;;
72882;SDS011;61017;37.812;-122.286;2022-11-06T04:58:49;2.63;;;1.50;;
72882;SDS011;61017;37.812;-122.286;2022-11-06T05:01:07;3.22;;;1.40;;
72882;SDS011;61017;37.812;-122.286;2022-11-06T05:02:53;4.75;;;1.60;;
72882;SDS011;61017;37.812;-122.286;2022-11-06T05:04:46;2.88;;;1.50;;
72882;SDS011;61017;37.812;-122.286;2022-11-06T05:06:36;2.28;;;1.30;;
72882;SDS011;61017;37.812;-122.286;2022-11-06T05:08:29;2.67;;;1.40;;
72882;SDS011;61017;37.812;-122.286;2022-11-06T05:10:23;1.80;;;1.40;;
72882;SDS011;61017;37.812;-122.286;2022-11-06T05:12:19;2.95;;;1.33;;
72882;SDS011;61017;37.812;-122.286;2022-11-06T05:14:10;2.50;;;1.60;;
72882;SDS011;61017;37.812;-122.286;2022-11-06T05:16:03;4.88;;;1.65;;
72882;SDS011;61017;37.812;-122.286;2022-11-06T05:17:53;2.03;;;1.23;;
72882;SDS011;61017;37.812;-122.286;2022-11-06T05:19:45;2.75;;;1.45;;
72882;SDS011;61017;37.812;-122.286;2022-11-06T05:21:38;2.33;;;1.30;;
72882;SDS011;61017;37.812;-122.286;2022-11-06T05:23:28;5.15;;;1.63;;
72882;SDS011;61017;37.812;-122.286;2022-11-06T05:25:18;5.15;;;1.50;;
72882;SDS011;61017;37.812;-122.286;2022-11-06T05:27:09;14.45;;;1.67;;
72882;SDS011;61017;37.812;-122.286;2022-11-06T05:29:02;4.70;;;1.30;;
72882;SDS011;61017;37.812;-122.286;2022-11-06T05:30:52;3.72;;;1.30;;
72882;SDS011;61017;37.812;-122.286;2022-11-06T05:32:43;4.68;;;1.30;;
72882;SDS011;61017;37.812;-122.286;2022-11-06T05:34:33;3.92;;;1.40;;
72882;SDS011;61017;37.812;-122.286;2022-11-06T05:36:23;3.25;;;1.30;;
72882;SDS011;61017;37.812;-122.286;2022-11-06T05:38:13;3.50;;;1.30;;
72882;SDS011;61017;37.812;-122.286;2022-11-06T05:40:04;6.95;;;1.20;;
72882;SDS011;61017;37.812;-122.286;2022-11-06T05:41:55;3.33;;;1.10;;
72882;SDS011;61017;37.812;-122.286;2022-11-06T05:43:45;4.00;;;1.30;;
72882;SDS011;61017;37.812;-122.286;2022-11-06T05:45:39;4.90;;;1.30;;
72882;SDS011;61017;37.812;-122.286;2022-11-06T05:47:30;2.28;;;1.10;;
72882;SDS011;61017;37.812;-122.286;2022-11-06T05:49:20;1.30;;;1.05;;
72882;SDS011;61017;37.812;-122.286;2022-11-06T05:51:10;3.10;;;1.20;;
72882;SDS011;61017;37.812;-122.286;2022-11-06T05:53:00;3.05;;;1.30;;
72882;SDS011;61017;37.812;-122.286;2022-11-06T05:54:50;2.28;;;1.17;;
72882;SDS011;61017;37.812;-122.286;2022-11-06T05:56:40;3.05;;;1.33;;
72882;SDS011;61017;37.812;-122.286;2022-11-06T05:58:31;4.53;;;1.42;;
72882;SDS011;61017;37.812;-122.286;2022-11-06T06:00:21;2.40;;;1.02;;
72882;SDS011;61017;37.812;-122.286;2022-11-06T06:02:11;2.38;;;1.10;;
72882;SDS011;61017;37.812;-122.286;2022-11-06T06:04:02;1.30;;;1.00;;
72882;SDS011;61017;37.812;-122.286;2022-11-06T06:05:52;4.70;;;1.20;;
72882;SDS011;61017;37.812;-122.286;2022-11-06T06:07:42;4.97;;;1.17;;
72882;SDS011;61017;37.812;-122.286;2022-11-06T06:09:32;4.32;;;1.25;;
72882;SDS011;61017;37.812;-122.286;2022-11-06T06:11:22;1.83;;;1.10;;
72882;SDS011;61017;37.812;-122.286;2022-11-06T06:13:13;1.77;;;1.08;;
72882;SDS011;61017;37.812;-122.286;2022-11-06T06:15:05;2.55;;;1.10;;
72882;SDS011;61017;37.812;-122.286;2022-11-06T06:16:56;1.75;;;1.10;;
72882;SDS011;61017;37.812;-122.286;2022-11-06T06:18:49;3.17;;;1.33;;
72882;SDS011;61017;37.812;-122.286;2022-11-06T06:20:40;2.10;;;1.10;;
72882;SDS011;61017;37.812;-122.286;2022-11-06T06:22:30;1.83;;;1.00;;
72882;SDS011;61017;37.812;-122.286;2022-11-06T06:24:20;4.22;;;1.20;;
72882;SDS011;61017;37.812;-122.286;2022-11-06T06:26:13;4.63;;;1.00;;
72882;SDS011;61017;37.812;-122.286;2022-11-06T06:28:06;2.40;;;1.23;;
72882;SDS011;61017;37.812;-122.286;2022-11-06T06:29:59;2.17;;;1.10;;
72882;SDS011;61017;37.812;-122.286;2022-11-06T06:31:52;1.48;;;0.90;;
72882;SDS011;61017;37.812;-122.286;2022-11-06T06:33:42;2.38;;;1.10;;
72882;SDS011;61017;37.812;-122.286;2022-11-06T06:35:32;1.90;;;1.15;;
72882;SDS011;61017;37.812;-122.286;2022-11-06T06:37:23;1.75;;;1.00;;
72882;SDS011;61017;37.812;-122.286;2022-11-06T06:39:13;2.15;;;1.00;;
72882;SDS011;61017;37.812;-122.286;2022-11-06T06:41:04;1.80;;;1.10;;
72882;SDS011;61017;37.812;-122.286;2022-11-06T06:42:56;1.88;;;1.20;;
72882;SDS011;61017;37.812;-122.286;2022-11-06T06:44:48;2.45;;;1.00;;
72882;SDS011;61017;37.812;-122.286;2022-11-06T06:46:38;2.67;;;1.10;;
72882;SDS011;61017;37.812;-122.286;2022-11-06T06:48:29;2.95;;;1.20;;
72882;SDS011;61017;37.812;-122.286;2022-11-06T06:50:20;1.63;;;1.02;;
72882;SDS011;61017;37.812;-122.286;2022-11-06T06:52:11;1.92;;;0.90;;
72882;SDS011;61017;37.812;-122.286;2022-11-06T06:54:02;2.33;;;1.10;;
72882;SDS011;61017;37.812;-122.286;2022-11-06T06:55:52;2.03;;;1.05;;
72882;SDS011;61017;37.812;-122.286;2022-11-06T06:57:43;1.17;;;0.98;;
72882;SDS011;61017;37.812;-122.286;2022-11-06T06:59:33;1.88;;;0.90;;
72882;SDS011;61017;37.812;-122.286;2022-11-06T07:01:23;4.93;;;1.00;;
72882;SDS011;61017;37.812;-122.286;2022-11-06T07:03:13;2.92;;;0.93;;
72882;SDS011;61017;37.812;-122.286;2022-11-06T07:05:04;1.63;;;1.00;;
72882;SDS011;61017;37.812;-122.286;2022-11-06T07:06:54;1.58;;;1.00;;
72882;SDS011;61017;37.812;-122.286;2022-11-06T07:08:45;3.25;;;1.05;;
72882;SDS011;61017;37.812;-122.286;2022-11-06T07:10:38;2.37;;;1.10;;
72882;SDS011;61017;37.812;-122.286;2022-11-06T07:12:31;2.03;;;1.15;;
72882;SDS011;61017;37.812;-122.286;2022-11-06T07:14:21;2.17;;;1.20;;
72882;SDS011;61017;37.812;-122.286;2022-11-06T07:16:12;2.35;;;1.05;;
72882;SDS011;61017;37.812;-122.286;2022-11-06T07:18:02;1.73;;;1.05;;
72882;SDS011;61017;37.812;-122.286;2022-11-06T07:19:54;2.75;;;1.20;;
72882;SDS011;61017;37.812;-122.286;2022-11-06T07:21:45;2.70;;;1.10;;
72882;SDS011;61017;37.812;-122.286;2022-11-06T07:23:38;3.45;;;1.17;;
72882;SDS011;61017;37.812;-122.286;2022-11-06T07:25:30;2.92;;;1.00;;
72882;SDS011;61017;37.812;-122.286;2022-11-06T07:27:23;1.98;;;1.10;;
72882;SDS011;61017;37.812;-122.286;2022-11-06T07:29:13;2.58;;;1.20;;
72882;SDS011;61017;37.812;-122.286;2022-11-06T07:31:05;1.77;;;1.00;;
72882;SDS011;61017;37.812;-122.286;2022-11-06T07:32:58;2.15;;;1.00;;
72882;SDS011;61017;37.812;-122.286;2022-11-06T07:34:52;2.10;;;1.10;;
72882;SDS011;61017;37.812;-122.286;2022-11-06T07:36:44;2.97;;;1.17;;
72882;SDS011;61017;37.812;-122.286;2022-11-06T07:38:34;2.22;;;1.20;;
72882;SDS011;61017;37.812;-122.286;2022-11-06T07:40:25;2.13;;;1.20;;
72882;SDS011;61017;37.812;-122.286;2022-11-06T07:42:15;2.75;;;1.20;;
72882;SDS011;61017;37.812;-122.286;2022-11-06T07:44:05;1.75;;;1.20;;
72882;SDS011;61017;37.812;-122.286;2022-11-06T07:46:00;2.40;;;1.10;;
72882;SDS011;61017;37.812;-122.286;2022-11-06T07:47:54;3.65;;;1.10;;
72882;SDS011;61017;37.812;-122.286;2022-11-06T07:49:44;2.72;;;1.15;;
72882;SDS011;61017;37.812;-122.286;2022-11-06T07:51:36;2.10;;;1.00;;
72882;SDS011;61017;37.812;-122.286;2022-11-06T07:53:30;3.92;;;1.35;;
72882;SDS011;61017;37.812;-122.286;2022-11-06T07:55:20;2.83;;;1.30;;
72882;SDS011;61017;37.812;-122.286;2022-11-06T07:57:11;3.38;;;1.17;;
72882;SDS011;61017;37.812;-122.286;2022-11-06T07:59:01;2.90;;;1.20;;
72882;SDS011;61017;37.812;-122.286;2022-11-06T08:00:52;1.95;;;1.05;;
72882;SDS011;61017;37.812;-122.286;2022-11-06T08:02:43;1.70;;;1.05;;
72882;SDS011;61017;37.812;-122.286;2022-11-06T08:04:33;3.33;;;1.30;;
72882;SDS011;61017;37.812;-122.286;2022-11-06T08:06:24;3.13;;;1.15;;
72882;SDS011;61017;37.812;-122.286;2022-11-06T08:08:13;3.00;;;1.25;;
72882;SDS011;61017;37.812;-122.286;2022-11-06T08:10:04;4.30;;;1.17;;
72882;SDS011;61017;37.812;-122.286;2022-11-06T08:11:55;3.25;;;1.30;;
72882;SDS011;61017;37.812;-122.286;2022-11-06T08:13:45;4.32;;;1.50;;
72882;SDS011;61017;37.812;-122.286;2022-11-06T08:15:38;3.13;;;1.20;;
72882;SDS011;61017;37.812;-122.286;2022-11-06T08:17:30;3.83;;;1.30;;
72882;SDS011;61017;37.812;-122.286;2022-11-06T08:19:20;5.90;;;1.30;;
72882;SDS011;61017;37.812;-122.286;2022-11-06T08:21:10;4.03;;;1.17;;
72882;SDS011;61017;37.812;-122.286;2022-11-06T08:23:01;4.45;;;1.30;;
72882;SDS011;61017;37.812;-122.286;2022-11-06T08:24:52;4.07;;;1.15;;
72882;SDS011;61017;37.812;-122.286;2022-11-06T08:26:42;4.60;;;1.40;;
72882;SDS011;61017;37.812;-122.286;2022-11-06T08:28:32;3.58;;;1.42;;
72882;SDS011;61017;37.812;-122.286;2022-11-06T08:30:23;5.90;;;1.40;;
72882;SDS011;61017;37.812;-122.286;2022-11-06T08:32:14;3.90;;;1.30;;
72882;SDS011;61017;37.812;-122.286;2022-11-06T08:34:04;3.50;;;1.20;;
72882;SDS011;61017;37.812;-122.286;2022-11-06T08:35:53;4.57;;;1.38;;
72882;SDS011;61017;37.812;-122.286;2022-11-06T08:37:43;5.20;;;1.50;;
72882;SDS011;61017;37.812;-122.286;2022-11-06T08:39:35;3.50;;;1.25;;
72882;SDS011;61017;37.812;-122.286;2022-11-06T08:41:25;2.33;;;1.40;;
72882;SDS011;61017;37.812;-122.286;2022-11-06T08:43:15;5.97;;;1.45;;
72882;SDS011;61017;37.812;-122.286;2022-11-06T08:45:25;5.63;;;1.20;;
72882;SDS011;61017;37.812;-122.286;2022-11-06T08:47:15;4.50;;;1.50;;
72882;SDS011;61017;37.812;-122.286;2022-11-06T08:49:05;6.88;;;1.40;;
72882;SDS011;61017;37.812;-122.286;2022-11-06T08:50:55;5.00;;;1.27;;
72882;SDS011;61017;37.812;-122.286;2022-11-06T08:52:45;4.38;;;1.40;;
72882;SDS011;61017;37.812;-122.286;2022-11-06T08:54:35;4.68;;;1.30;;
72882;SDS011;61017;37.812;-122.286;2022-11-06T08:56:25;4.20;;;1.30;;
72882;SDS011;61017;37.812;-122.286;2022-11-06T08:58:15;4.38;;;1.42;;
72882;SDS011;61017;37.812;-122.286;2022-11-06T09:00:06;4.22;;;1.40;;
72882;SDS011;61017;37.812;-122.286;2022-11-06T09:01:56;5.00;;;1.40;;
72882;SDS011;61017;37.812;-122.286;2022-11-06T09:03:46;3.80;;;1.40;;
72882;SDS011;61017;37.812;-122.286;2022-11-06T09:05:38;5.53;;;1.40;;
72882;SDS011;61017;37.812;-122.286;2022-11-06T09:07:29;3.55;;;1.60;;
72882;SDS011;61017;37.812;-122.286;2022-11-06T09:09:19;4.25;;;1.50;;
72882;SDS011;61017;37.812;-122.286;2022-11-06T09:11:10;5.65;;;1.70;;
72882;SDS011;61017;37.812;-122.286;2022-11-06T09:13:01;5.53;;;1.60;;
72882;SDS011;61017;37.812;-122.286;2022-11-06T09:14:51;4.35;;;1.50;;
72882;SDS011;61017;37.812;-122.286;2022-11-06T09:16:41;3.03;;;1.48;;
72882;SDS011;61017;37.812;-122.286;2022-11-06T09:18:31;5.85;;;1.55;;
72882;SDS011;61017;37.812;-122.286;2022-11-06T09:20:21;5.43;;;1.60;;
72882;SDS011;61017;37.812;-122.286;2022-11-06T09:22:12;6.07;;;1.58;;
72882;SDS011;61017;37.812;-122.286;2022-11-06T09:24:02;5.88;;;1.60;;
72882;SDS011;61017;37.812;-122.286;2022-11-06T09:25:52;5.82;;;1.73;;
72882;SDS011;61017;37.812;-122.286;2022-11-06T09:27:46;4.68;;;1.60;;
72882;SDS011;61017;37.812;-122.286;2022-11-06T09:29:37;5.95;;;1.70;;
72882;SDS011;61017;37.812;-122.286;2022-11-06T09:31:27;4.35;;;1.42;;
72882;SDS011;61017;37.812;-122.286;2022-11-06T09:33:17;5.50;;;1.50;;
72882;SDS011;61017;37.812;-122.286;2022-11-06T09:35:07;3.88;;;1.67;;
72882;SDS011;61017;37.812;-122.286;2022-11-06T09:36:57;5.35;;;1.52;;
72882;SDS011;61017;37.812;-122.286;2022-11-06T09:38:49;4.70;;;1.60;;
72882;SDS011;61017;37.812;-122.286;2022-11-06T09:47:04;6.20;;;1.50;;
72882;SDS011;61017;37.812;-122.286;2022-11-06T09:53:29;3.88;;;1.40;;
72882;SDS011;61017;37.812;-122.286;2022-11-06T09:55:30;5.78;;;2.00;;
72882;SDS011;61017;37.812;-122.286;2022-11-06T09:59:25;5.68;;;1.42;;
72882;SDS011;61017;37.812;-122.286;2022-11-06T10:01:16;6.47;;;1.75;;
72882;SDS011;61017;37.812;-122.286;2022-11-06T10:03:17;5.30;;;1.60;;
72882;SDS011;61017;37.812;-122.286;2022-11-06T10:07:32;4.00;;;1.55;;
72882;SDS011;61017;37.812;-122.286;2022-11-06T10:09:24;5.45;;;1.70;;
72882;SDS011;61017;37.812;-122.286;2022-11-06T10:15:11;5.50;;;1.67;;
72882;SDS011;61017;37.812;-122.286;2022-11-06T10:21:46;8.98;;;1.65;;
72882;SDS011;61017;37.812;-122.286;2022-11-06T10:23:46;8.98;;;1.80;;
72882;SDS011;61017;37.812;-122.286;2022-11-06T10:32:04;13.30;;;1.80;;
72882;SDS011;61017;37.812;-122.286;2022-11-06T10:34:28;5.28;;;1.55;;
72882;SDS011;61017;37.812;-122.286;2022-11-06T10:40:17;8.38;;;1.98;;
72882;SDS011;61017;37.812;-122.286;2022-11-06T10:44:17;7.68;;;1.92;;
72882;SDS011;61017;37.812;-122.286;2022-11-06T10:48:31;8.15;;;1.60;;
72882;SDS011;61017;37.812;-122.286;2022-11-06T10:50:27;5.50;;;1.52;;
72882;SDS011;61017;37.812;-122.286;2022-11-06T10:56:33;6.80;;;1.80;;
72882;SDS011;61017;37.812;-122.286;2022-11-06T10:58:35;5.70;;;1.55;;
72882;SDS011;61017;37.812;-122.286;2022-11-06T11:00:27;6.70;;;1.42;;
72882;SDS011;61017;37.812;-122.286;2022-11-06T11:02:51;8.50;;;1.75;;
72882;SDS011;61017;37.812;-122.286;2022-11-06T11:04:39;8.13;;;2.00;;
72882;SDS011;61017;37.812;-122.286;2022-11-06T11:06:29;7.32;;;1.70;;
72882;SDS011;61017;37.812;-122.286;2022-11-06T11:12:22;5.43;;;1.40;;
72882;SDS011;61017;37.812;-122.286;2022-11-06T11:14:21;8.38;;;1.67;;
72882;SDS011;61017;37.812;-122.286;2022-11-06T11:16:19;10.20;;;1.70;;
72882;SDS011;61017;37.812;-122.286;2022-11-06T11:18:23;7.13;;;1.73;;
72882;SDS011;61017;37.812;-122.286;2022-11-06T11:20:27;5.22;;;1.40;;
72882;SDS011;61017;37.812;-122.286;2022-11-06T11:22:23;4.95;;;1.40;;
72882;SDS011;61017;37.812;-122.286;2022-11-06T11:24:13;8.07;;;1.55;;
72882;SDS011;61017;37.812;-122.286;2022-11-06T11:28:33;7.78;;;1.63;;
72882;SDS011;61017;37.812;-122.286;2022-11-06T11:30:25;7.72;;;1.77;;
72882;SDS011;61017;37.812;-122.286;2022-11-06T11:32:16;6.22;;;1.60;;
72882;SDS011;61017;37.812;-122.286;2022-11-06T11:34:14;6.80;;;1.40;;
72882;SDS011;61017;37.812;-122.286;2022-11-06T11:36:07;7.07;;;1.88;;
72882;SDS011;61017;37.812;-122.286;2022-11-06T11:38:05;6.43;;;1.55;;
72882;SDS011;61017;37.812;-122.286;2022-11-06T11:40:18;5.55;;;1.67;;
72882;SDS011;61017;37.812;-122.286;2022-11-06T11:42:23;6.10;;;1.50;;
72882;SDS011;61017;37.812;-122.286;2022-11-06T11:44:20;5.68;;;1.52;;
72882;SDS011;61017;37.812;-122.286;2022-11-06T11:46:13;5.85;;;1.70;;
72882;SDS011;61017;37.812;-122.286;2022-11-06T11:48:12;5.70;;;1.40;;
72882;SDS011;61017;37.812;-122.286;2022-11-06T11:50:18;7.05;;;1.80;;
72882;SDS011;61017;37.812;-122.286;2022-11-06T11:52:22;3.85;;;1.63;;
72882;SDS011;61017;37.812;-122.286;2022-11-06T11:56:02;5.47;;;1.50;;
72882;SDS011;61017;37.812;-122.286;2022-11-06T11:57:56;6.35;;;1.52;;
72882;SDS011;61017;37.812;-122.286;2022-11-06T12:00:00;8.10;;;1.70;;
72882;SDS011;61017;37.812;-122.286;2022-11-06T12:01:53;6.55;;;1.70;;
72882;SDS011;61017;37.812;-122.286;2022-11-06T12:04:25;4.93;;;1.50;;
72882;SDS011;61017;37.812;-122.286;2022-11-06T12:06:19;8.73;;;1.90;;
72882;SDS011;61017;37.812;-122.286;2022-11-06T12:08:13;4.90;;;1.25;;
72882;SDS011;61017;37.812;-122.286;2022-11-06T12:12:39;4.57;;;1.45;;
72882;SDS011;61017;37.812;-122.286;2022-11-06T12:14:37;5.85;;;1.50;;
72882;SDS011;61017;37.812;-122.286;2022-11-06T12:16:27;4.88;;;1.58;;
72882;SDS011;61017;37.812;-122.286;2022-11-06T12:18:22;7.90;;;1.75;;
72882;SDS011;61017;37.812;-122.286;2022-11-06T12:20:26;5.32;;;1.40;;
72882;SDS011;61017;37.812;-122.286;2022-11-06T12:22:30;5.07;;;1.55;;
72882;SDS011;61017;37.812;-122.286;2022-11-06T12:25:12;5.30;;;1.30;;
72882;SDS011;61017;37.812;-122.286;2022-11-06T12:28:38;4.72;;;1.58;;
72882;SDS011;61017;37.812;-122.286;2022-11-06T12:30:30;5.60;;;1.45;;
72882;SDS011;61017;37.812;-122.286;2022-11-06T12:32:31;4.57;;;1.55;;
72882;SDS011;61017;37.812;-122.286;2022-11-06T12:34:57;6.97;;;1.52;;
72882;SDS011;61017;37.812;-122.286;2022-11-06T12:38:56;7.23;;;1.77;;